Tuesday, October 16, 2018, 7:34 PM EDT
Back to Local

KNAK, Annapolis Us Naval Academy

Location: Annapolis, MD, United States Lat: 38.983
Local Time: 7:34 PM EDT (23:34 GMT) Lon: -76.483
Time Zone: US/Eastern Elev: 6 ft

Show me the last for .
Show Coded

Time T Td Feel RH Dir Speed Gust Alt SLP Vis Weather Sky Remarks
2018-10-16 18:54 59 41 - 51 260° 3 - 30.12 30.12 10 CLR None
2018-10-16 17:54 61 39 - 44 - Calm - 30.11 30.12 10 CLR None
2018-10-16 16:54 63 38 - 39 290° 6 - 30.12 30.12 10 CLR None
2018-10-16 15:54 63 36 - 36 280° 5 - 30.12 30.13 10 CLR None
2018-10-16 14:54 64 35 - 33 290° 6 - 30.14 30.14 10 CLR None
2018-10-16 13:54 63 41 - 44 330° 7 - 30.16 30.17 10 CLR 6-hr Min Temp (2pm): 57.9°F
6-hr Max Temp (2pm): 63.0°F
2018-10-16 12:54 62 41 - 45 350° 8 - 30.19 30.19 10 CLR None
2018-10-16 11:54 62 42 - 47 310° 5 - 30.21 30.21 10 CLR None
2018-10-16 10:54 60 42 - 51 340° 8 - 30.22 30.23 10 CLR None
2018-10-16 09:54 59 43 - 55 330° 9 - 30.22 30.22 10 CLR None
2018-10-16 08:54 59 43 - 55 340° 9 - 30.22 30.22 10 CLR None
2018-10-16 07:54 60 43 - 53 340° 15 - 30.19 30.19 10 CLR 24-hr Precip Total (8am): 0.02"
6-hr Min Temp (8am): 59.0°F
6-hr Max Temp (8am): 69.1°F
2018-10-16 06:54 61 46 - 57 340° 9 - 30.17 30.17 10 CLR None
2018-10-16 05:54 62 46 - 55 330° 14 - 30.14 30.14 10 FEW120 None
2018-10-16 04:54 63 46 - 53 330° 15 - 30.12 30.12 10 CLR None
2018-10-16 03:54 65 47 - 52 320° 15 28 30.10 30.11 10 OVC075 None
2018-10-16 02:54 67 51 - 56 310° 13 28 30.09 30.09 10 OVC060 None
2018-10-16 01:54 69 54 - 58 320° 14 24 30.06 30.06 10 BKN090 OVC110 6-hr Precip Total (2am): 0.00"
6-hr Min Temp (2am): 69.1°F
6-hr Max Temp (2am): 75.9°F
2018-10-16 00:54 70 56 - 61 310° 13 21 30.02 30.02 10 BKN041 OVC085 Peak wind: 32 mph (28 kts) from 310° at 10 min
1-hr Precip Total: Trace
24-hr Min Temp (1am): 61.0°F
24-hr Max Temp (1am): 75.9°F
2018-10-15 23:54 75 65 78 70 290° 7 - 29.97 29.97 10 BKN070 None
2018-10-15 22:54 75 65 78 70 Variable 6 - 29.95 29.96 10 CLR None
2018-10-15 21:54 76 65 79 68 Variable 6 - 29.97 29.98 10 FEW070 FEW120 None
2018-10-15 20:54 76 64 79 66 Variable 7 - 29.96 29.97 10 CLR None
2018-10-15 19:54 76 64 79 66 220° 6 - 29.96 29.96 10 FEW070 FEW100 SCT120 6-hr Precip Total (8pm): 0.00"
6-hr Min Temp (8pm): 71.1°F
6-hr Max Temp (8pm): 75.9°F

Support USWX by starting your Amazon purchase here.